sensor_id;sensor_type;location;lat;lon;timestamp;P1;durP1;ratioP1;P2;durP2;ratioP2
81106;SDS011;70588;53.172;8.620;2023-07-16T00:00:42;1.55;;;0.70;;
81106;SDS011;70588;53.172;8.620;2023-07-16T00:03:07;1.35;;;1.00;;
81106;SDS011;70588;53.172;8.620;2023-07-16T00:05:33;1.92;;;1.25;;
81106;SDS011;70588;53.172;8.620;2023-07-16T00:08:01;1.95;;;1.60;;
81106;SDS011;70588;53.172;8.620;2023-07-16T00:10:26;1.80;;;0.90;;
81106;SDS011;70588;53.172;8.620;2023-07-16T00:12:51;1.10;;;1.00;;
81106;SDS011;70588;53.172;8.620;2023-07-16T00:15:17;2.58;;;1.15;;
81106;SDS011;70588;53.172;8.620;2023-07-16T00:17:42;1.17;;;0.85;;
81106;SDS011;70588;53.172;8.620;2023-07-16T00:20:08;2.53;;;1.00;;
81106;SDS011;70588;53.172;8.620;2023-07-16T00:22:34;1.88;;;0.90;;
81106;SDS011;70588;53.172;8.620;2023-07-16T00:25:00;1.35;;;0.93;;
81106;SDS011;70588;53.172;8.620;2023-07-16T00:27:25;2.65;;;1.13;;
81106;SDS011;70588;53.172;8.620;2023-07-16T00:29:51;0.93;;;0.90;;
81106;SDS011;70588;53.172;8.620;2023-07-16T00:32:16;2.28;;;1.20;;
81106;SDS011;70588;53.172;8.620;2023-07-16T00:34:41;2.53;;;1.00;;
81106;SDS011;70588;53.172;8.620;2023-07-16T00:37:07;1.10;;;1.00;;
81106;SDS011;70588;53.172;8.620;2023-07-16T00:39:32;1.83;;;1.00;;
81106;SDS011;70588;53.172;8.620;2023-07-16T00:41:57;1.58;;;1.13;;
81106;SDS011;70588;53.172;8.620;2023-07-16T00:44:23;2.00;;;1.13;;
81106;SDS011;70588;53.172;8.620;2023-07-16T00:46:49;2.40;;;1.20;;
81106;SDS011;70588;53.172;8.620;2023-07-16T00:49:15;1.90;;;1.13;;
81106;SDS011;70588;53.172;8.620;2023-07-16T00:51:40;2.03;;;1.02;;
81106;SDS011;70588;53.172;8.620;2023-07-16T00:54:07;2.17;;;1.40;;
81106;SDS011;70588;53.172;8.620;2023-07-16T00:56:32;2.65;;;1.20;;
81106;SDS011;70588;53.172;8.620;2023-07-16T00:58:58;3.17;;;1.50;;
81106;SDS011;70588;53.172;8.620;2023-07-16T01:01:23;2.40;;;1.30;;
81106;SDS011;70588;53.172;8.620;2023-07-16T01:03:49;1.88;;;1.30;;
81106;SDS011;70588;53.172;8.620;2023-07-16T01:06:16;2.30;;;1.38;;
81106;SDS011;70588;53.172;8.620;2023-07-16T01:08:49;4.43;;;1.55;;
81106;SDS011;70588;53.172;8.620;2023-07-16T01:11:23;3.03;;;1.40;;
81106;SDS011;70588;53.172;8.620;2023-07-16T01:13:48;2.03;;;1.23;;
81106;SDS011;70588;53.172;8.620;2023-07-16T01:16:21;2.83;;;1.63;;
81106;SDS011;70588;53.172;8.620;2023-07-16T01:18:48;1.75;;;1.10;;
81106;SDS011;70588;53.172;8.620;2023-07-16T01:21:14;2.55;;;1.50;;
81106;SDS011;70588;53.172;8.620;2023-07-16T01:23:53;2.97;;;1.10;;
81106;SDS011;70588;53.172;8.620;2023-07-16T01:31:59;2.60;;;1.30;;
81106;SDS011;70588;53.172;8.620;2023-07-16T01:34:26;2.78;;;1.45;;
81106;SDS011;70588;53.172;8.620;2023-07-16T01:36:55;2.05;;;1.05;;
81106;SDS011;70588;53.172;8.620;2023-07-16T01:39:20;1.88;;;0.88;;
81106;SDS011;70588;53.172;8.620;2023-07-16T01:41:46;3.33;;;1.73;;
81106;SDS011;70588;53.172;8.620;2023-07-16T01:44:12;2.20;;;1.40;;
81106;SDS011;70588;53.172;8.620;2023-07-16T01:46:37;2.95;;;1.52;;
81106;SDS011;70588;53.172;8.620;2023-07-16T01:49:02;2.42;;;1.00;;
81106;SDS011;70588;53.172;8.620;2023-07-16T01:51:28;2.30;;;1.13;;
81106;SDS011;70588;53.172;8.620;2023-07-16T01:53:53;1.88;;;1.17;;
81106;SDS011;70588;53.172;8.620;2023-07-16T01:56:19;3.17;;;1.40;;
81106;SDS011;70588;53.172;8.620;2023-07-16T01:58:45;1.52;;;1.00;;
81106;SDS011;70588;53.172;8.620;2023-07-16T02:01:10;2.05;;;1.10;;
81106;SDS011;70588;53.172;8.620;2023-07-16T02:03:35;2.83;;;1.48;;
81106;SDS011;70588;53.172;8.620;2023-07-16T02:06:01;2.28;;;1.30;;
81106;SDS011;70588;53.172;8.620;2023-07-16T02:08:26;4.70;;;1.70;;
81106;SDS011;70588;53.172;8.620;2023-07-16T02:10:52;2.58;;;1.40;;
81106;SDS011;70588;53.172;8.620;2023-07-16T02:13:17;2.37;;;1.33;;
81106;SDS011;70588;53.172;8.620;2023-07-16T02:15:43;1.77;;;1.30;;
81106;SDS011;70588;53.172;8.620;2023-07-16T02:18:08;1.27;;;1.00;;
81106;SDS011;70588;53.172;8.620;2023-07-16T02:20:34;1.92;;;1.02;;
81106;SDS011;70588;53.172;8.620;2023-07-16T02:23:00;2.75;;;1.25;;
81106;SDS011;70588;53.172;8.620;2023-07-16T02:25:25;2.58;;;1.20;;
81106;SDS011;70588;53.172;8.620;2023-07-16T02:27:51;1.40;;;1.02;;
81106;SDS011;70588;53.172;8.620;2023-07-16T02:30:16;3.17;;;1.48;;
81106;SDS011;70588;53.172;8.620;2023-07-16T02:32:42;2.25;;;1.55;;
81106;SDS011;70588;53.172;8.620;2023-07-16T02:35:08;2.42;;;1.52;;
81106;SDS011;70588;53.172;8.620;2023-07-16T02:37:33;1.65;;;1.10;;
81106;SDS011;70588;53.172;8.620;2023-07-16T02:39:59;1.50;;;1.30;;
81106;SDS011;70588;53.172;8.620;2023-07-16T02:42:24;1.98;;;1.33;;
81106;SDS011;70588;53.172;8.620;2023-07-16T02:44:50;1.80;;;1.33;;
81106;SDS011;70588;53.172;8.620;2023-07-16T02:47:15;2.33;;;1.23;;
81106;SDS011;70588;53.172;8.620;2023-07-16T02:49:41;4.93;;;1.80;;
81106;SDS011;70588;53.172;8.620;2023-07-16T02:52:06;2.55;;;1.42;;
81106;SDS011;70588;53.172;8.620;2023-07-16T02:54:32;4.00;;;1.50;;
81106;SDS011;70588;53.172;8.620;2023-07-16T02:56:58;3.95;;;1.63;;
81106;SDS011;70588;53.172;8.620;2023-07-16T02:59:23;3.22;;;1.80;;
81106;SDS011;70588;53.172;8.620;2023-07-16T03:01:49;3.50;;;1.40;;
81106;SDS011;70588;53.172;8.620;2023-07-16T03:04:15;2.70;;;1.73;;
81106;SDS011;70588;53.172;8.620;2023-07-16T03:06:41;1.97;;;1.50;;
81106;SDS011;70588;53.172;8.620;2023-07-16T03:09:06;2.00;;;1.40;;
81106;SDS011;70588;53.172;8.620;2023-07-16T03:11:31;2.38;;;1.40;;
81106;SDS011;70588;53.172;8.620;2023-07-16T03:13:57;2.10;;;1.40;;
81106;SDS011;70588;53.172;8.620;2023-07-16T03:16:22;3.60;;;2.08;;
81106;SDS011;70588;53.172;8.620;2023-07-16T03:18:48;2.67;;;1.33;;
81106;SDS011;70588;53.172;8.620;2023-07-16T03:21:13;2.17;;;1.40;;
81106;SDS011;70588;53.172;8.620;2023-07-16T03:23:39;3.83;;;1.77;;
81106;SDS011;70588;53.172;8.620;2023-07-16T03:26:04;4.40;;;1.63;;
81106;SDS011;70588;53.172;8.620;2023-07-16T03:28:29;2.25;;;1.70;;
81106;SDS011;70588;53.172;8.620;2023-07-16T03:30:55;2.97;;;1.90;;
81106;SDS011;70588;53.172;8.620;2023-07-16T03:33:20;2.13;;;1.50;;
81106;SDS011;70588;53.172;8.620;2023-07-16T03:35:46;2.45;;;1.15;;
81106;SDS011;70588;53.172;8.620;2023-07-16T03:38:13;2.35;;;1.50;;
81106;SDS011;70588;53.172;8.620;2023-07-16T03:40:39;5.22;;;2.30;;
81106;SDS011;70588;53.172;8.620;2023-07-16T03:43:06;5.65;;;2.15;;
81106;SDS011;70588;53.172;8.620;2023-07-16T03:45:33;3.85;;;2.00;;
81106;SDS011;70588;53.172;8.620;2023-07-16T03:47:58;3.38;;;1.77;;
81106;SDS011;70588;53.172;8.620;2023-07-16T03:50:23;3.33;;;2.00;;
81106;SDS011;70588;53.172;8.620;2023-07-16T03:52:49;4.47;;;1.50;;
81106;SDS011;70588;53.172;8.620;2023-07-16T03:55:14;3.28;;;1.77;;
81106;SDS011;70588;53.172;8.620;2023-07-16T03:57:40;2.87;;;2.20;;
81106;SDS011;70588;53.172;8.620;2023-07-16T04:00:06;4.18;;;1.75;;
81106;SDS011;70588;53.172;8.620;2023-07-16T04:02:34;3.00;;;1.50;;
81106;SDS011;70588;53.172;8.620;2023-07-16T04:04:59;4.03;;;2.00;;
81106;SDS011;70588;53.172;8.620;2023-07-16T04:07:25;2.63;;;1.73;;
81106;SDS011;70588;53.172;8.620;2023-07-16T04:09:50;2.90;;;1.70;;
81106;SDS011;70588;53.172;8.620;2023-07-16T04:12:16;1.45;;;1.30;;
81106;SDS011;70588;53.172;8.620;2023-07-16T04:14:42;3.72;;;1.90;;
81106;SDS011;70588;53.172;8.620;2023-07-16T04:17:07;5.13;;;1.92;;
81106;SDS011;70588;53.172;8.620;2023-07-16T04:19:33;3.72;;;1.73;;
81106;SDS011;70588;53.172;8.620;2023-07-16T04:21:59;3.47;;;1.90;;
81106;SDS011;70588;53.172;8.620;2023-07-16T04:24:24;4.03;;;2.15;;
81106;SDS011;70588;53.172;8.620;2023-07-16T04:26:52;2.85;;;1.63;;
81106;SDS011;70588;53.172;8.620;2023-07-16T04:29:18;4.05;;;1.63;;
81106;SDS011;70588;53.172;8.620;2023-07-16T04:31:43;5.05;;;1.80;;
81106;SDS011;70588;53.172;8.620;2023-07-16T04:34:08;5.50;;;1.70;;
81106;SDS011;70588;53.172;8.620;2023-07-16T04:36:34;4.13;;;1.50;;
81106;SDS011;70588;53.172;8.620;2023-07-16T04:38:59;2.85;;;1.52;;
81106;SDS011;70588;53.172;8.620;2023-07-16T04:41:25;4.77;;;1.80;;
81106;SDS011;70588;53.172;8.620;2023-07-16T04:43:50;3.65;;;1.40;;
81106;SDS011;70588;53.172;8.620;2023-07-16T04:46:15;3.27;;;1.60;;
81106;SDS011;70588;53.172;8.620;2023-07-16T04:48:41;4.32;;;1.40;;
81106;SDS011;70588;53.172;8.620;2023-07-16T04:51:07;1.63;;;1.33;;
81106;SDS011;70588;53.172;8.620;2023-07-16T04:53:32;3.47;;;1.60;;
81106;SDS011;70588;53.172;8.620;2023-07-16T04:55:57;4.07;;;1.30;;
81106;SDS011;70588;53.172;8.620;2023-07-16T04:58:23;2.60;;;1.63;;
81106;SDS011;70588;53.172;8.620;2023-07-16T05:00:48;2.33;;;1.13;;
81106;SDS011;70588;53.172;8.620;2023-07-16T05:03:14;3.72;;;1.48;;
81106;SDS011;70588;53.172;8.620;2023-07-16T05:05:39;3.75;;;1.50;;
81106;SDS011;70588;53.172;8.620;2023-07-16T05:08:05;4.35;;;1.38;;
81106;SDS011;70588;53.172;8.620;2023-07-16T05:10:30;6.20;;;1.52;;
81106;SDS011;70588;53.172;8.620;2023-07-16T05:12:56;2.25;;;1.13;;
81106;SDS011;70588;53.172;8.620;2023-07-16T05:15:21;3.67;;;1.57;;
81106;SDS011;70588;53.172;8.620;2023-07-16T05:17:46;2.15;;;1.40;;
81106;SDS011;70588;53.172;8.620;2023-07-16T05:20:12;2.30;;;1.50;;
81106;SDS011;70588;53.172;8.620;2023-07-16T05:22:37;2.35;;;1.15;;
81106;SDS011;70588;53.172;8.620;2023-07-16T05:25:03;3.85;;;1.40;;
81106;SDS011;70588;53.172;8.620;2023-07-16T05:27:28;1.70;;;1.15;;
81106;SDS011;70588;53.172;8.620;2023-07-16T05:29:54;2.38;;;1.48;;
81106;SDS011;70588;53.172;8.620;2023-07-16T05:32:19;4.50;;;1.92;;
81106;SDS011;70588;53.172;8.620;2023-07-16T05:34:45;2.28;;;1.27;;
81106;SDS011;70588;53.172;8.620;2023-07-16T05:37:11;4.88;;;1.60;;
81106;SDS011;70588;53.172;8.620;2023-07-16T05:39:37;3.60;;;1.30;;
81106;SDS011;70588;53.172;8.620;2023-07-16T05:42:02;4.35;;;1.50;;
81106;SDS011;70588;53.172;8.620;2023-07-16T05:44:28;4.38;;;1.73;;
81106;SDS011;70588;53.172;8.620;2023-07-16T05:46:54;2.13;;;1.27;;
81106;SDS011;70588;53.172;8.620;2023-07-16T05:49:19;5.38;;;1.80;;
81106;SDS011;70588;53.172;8.620;2023-07-16T05:51:44;3.22;;;1.88;;
81106;SDS011;70588;53.172;8.620;2023-07-16T05:54:10;3.28;;;1.67;;
81106;SDS011;70588;53.172;8.620;2023-07-16T05:56:36;4.05;;;1.85;;
81106;SDS011;70588;53.172;8.620;2023-07-16T05:59:01;6.07;;;2.00;;
81106;SDS011;70588;53.172;8.620;2023-07-16T06:01:26;4.25;;;1.73;;
81106;SDS011;70588;53.172;8.620;2023-07-16T06:03:52;3.03;;;1.58;;
81106;SDS011;70588;53.172;8.620;2023-07-16T06:06:17;2.75;;;1.63;;
81106;SDS011;70588;53.172;8.620;2023-07-16T06:08:43;3.17;;;1.55;;
81106;SDS011;70588;53.172;8.620;2023-07-16T06:11:08;3.20;;;1.38;;
81106;SDS011;70588;53.172;8.620;2023-07-16T06:13:34;2.55;;;1.48;;
81106;SDS011;70588;53.172;8.620;2023-07-16T06:15:59;4.43;;;1.50;;
81106;SDS011;70588;53.172;8.620;2023-07-16T06:18:25;2.22;;;1.35;;
81106;SDS011;70588;53.172;8.620;2023-07-16T06:20:50;3.03;;;1.50;;
81106;SDS011;70588;53.172;8.620;2023-07-16T06:23:17;3.85;;;1.75;;
81106;SDS011;70588;53.172;8.620;2023-07-16T06:25:43;2.22;;;1.20;;
81106;SDS011;70588;53.172;8.620;2023-07-16T06:28:09;2.97;;;1.67;;
81106;SDS011;70588;53.172;8.620;2023-07-16T06:30:35;3.35;;;1.35;;
81106;SDS011;70588;53.172;8.620;2023-07-16T06:33:02;3.55;;;1.73;;
81106;SDS011;70588;53.172;8.620;2023-07-16T06:35:27;1.95;;;1.17;;
81106;SDS011;70588;53.172;8.620;2023-07-16T06:37:53;2.63;;;1.40;;
81106;SDS011;70588;53.172;8.620;2023-07-16T06:40:18;4.57;;;1.60;;
81106;SDS011;70588;53.172;8.620;2023-07-16T06:42:43;3.75;;;1.42;;
81106;SDS011;70588;53.172;8.620;2023-07-16T06:45:09;4.38;;;1.27;;
81106;SDS011;70588;53.172;8.620;2023-07-16T06:47:34;2.80;;;1.30;;
81106;SDS011;70588;53.172;8.620;2023-07-16T06:50:00;2.73;;;1.43;;
81106;SDS011;70588;53.172;8.620;2023-07-16T06:52:25;3.00;;;1.03;;
81106;SDS011;70588;53.172;8.620;2023-07-16T06:54:52;2.75;;;1.50;;
81106;SDS011;70588;53.172;8.620;2023-07-16T06:57:18;3.65;;;1.98;;
81106;SDS011;70588;53.172;8.620;2023-07-16T06:59:44;4.43;;;1.30;;
81106;SDS011;70588;53.172;8.620;2023-07-16T07:02:09;3.47;;;1.38;;
81106;SDS011;70588;53.172;8.620;2023-07-16T07:04:35;5.35;;;2.13;;
81106;SDS011;70588;53.172;8.620;2023-07-16T07:07:00;4.32;;;2.03;;
81106;SDS011;70588;53.172;8.620;2023-07-16T07:09:26;5.07;;;1.77;;
81106;SDS011;70588;53.172;8.620;2023-07-16T07:11:51;3.78;;;1.70;;
81106;SDS011;70588;53.172;8.620;2023-07-16T07:14:16;4.05;;;1.80;;
81106;SDS011;70588;53.172;8.620;2023-07-16T07:16:42;4.82;;;1.83;;
81106;SDS011;70588;53.172;8.620;2023-07-16T07:19:08;5.20;;;1.90;;
81106;SDS011;70588;53.172;8.620;2023-07-16T07:21:34;3.30;;;2.03;;
81106;SDS011;70588;53.172;8.620;2023-07-16T07:23:59;5.00;;;2.55;;
81106;SDS011;70588;53.172;8.620;2023-07-16T07:26:24;3.78;;;2.10;;
81106;SDS011;70588;53.172;8.620;2023-07-16T07:28:50;5.25;;;2.15;;
81106;SDS011;70588;53.172;8.620;2023-07-16T07:31:15;3.97;;;2.20;;
81106;SDS011;70588;53.172;8.620;2023-07-16T07:33:41;3.38;;;1.65;;
81106;SDS011;70588;53.172;8.620;2023-07-16T07:36:06;4.93;;;2.35;;
81106;SDS011;70588;53.172;8.620;2023-07-16T07:38:32;2.95;;;1.73;;
81106;SDS011;70588;53.172;8.620;2023-07-16T07:40:57;3.53;;;1.95;;
81106;SDS011;70588;53.172;8.620;2023-07-16T07:43:22;3.42;;;2.05;;
81106;SDS011;70588;53.172;8.620;2023-07-16T07:45:48;3.00;;;1.70;;
81106;SDS011;70588;53.172;8.620;2023-07-16T07:48:13;3.43;;;2.00;;
81106;SDS011;70588;53.172;8.620;2023-07-16T07:50:39;3.50;;;1.92;;
81106;SDS011;70588;53.172;8.620;2023-07-16T07:53:04;3.05;;;1.98;;
81106;SDS011;70588;53.172;8.620;2023-07-16T07:55:30;6.00;;;2.20;;
81106;SDS011;70588;53.172;8.620;2023-07-16T07:57:56;4.53;;;2.10;;
81106;SDS011;70588;53.172;8.620;2023-07-16T08:00:22;3.80;;;2.20;;
81106;SDS011;70588;53.172;8.620;2023-07-16T08:02:47;3.08;;;1.50;;
81106;SDS011;70588;53.172;8.620;2023-07-16T08:05:13;2.53;;;1.80;;
81106;SDS011;70588;53.172;8.620;2023-07-16T08:07:38;2.38;;;1.98;;
81106;SDS011;70588;53.172;8.620;2023-07-16T08:10:04;3.53;;;1.90;;
81106;SDS011;70588;53.172;8.620;2023-07-16T08:12:29;3.72;;;1.85;;
81106;SDS011;70588;53.172;8.620;2023-07-16T08:14:55;3.22;;;2.03;;
81106;SDS011;70588;53.172;8.620;2023-07-16T08:17:21;2.50;;;1.90;;
81106;SDS011;70588;53.172;8.620;2023-07-16T08:19:47;2.85;;;1.98;;
81106;SDS011;70588;53.172;8.620;2023-07-16T08:22:12;2.47;;;1.75;;
81106;SDS011;70588;53.172;8.620;2023-07-16T08:24:38;2.72;;;1.98;;
81106;SDS011;70588;53.172;8.620;2023-07-16T08:27:03;3.55;;;2.20;;
81106;SDS011;70588;53.172;8.620;2023-07-16T08:29:29;2.65;;;1.90;;
81106;SDS011;70588;53.172;8.620;2023-07-16T08:31:54;4.85;;;1.90;;
81106;SDS011;70588;53.172;8.620;2023-07-16T08:34:20;3.63;;;2.00;;
81106;SDS011;70588;53.172;8.620;2023-07-16T08:36:45;3.67;;;2.20;;
81106;SDS011;70588;53.172;8.620;2023-07-16T08:39:10;2.25;;;1.80;;
81106;SDS011;70588;53.172;8.620;2023-07-16T08:41:37;4.50;;;1.88;;
81106;SDS011;70588;53.172;8.620;2023-07-16T08:44:03;3.42;;;1.83;;
81106;SDS011;70588;53.172;8.620;2023-07-16T08:46:28;2.10;;;1.60;;
81106;SDS011;70588;53.172;8.620;2023-07-16T08:48:54;2.80;;;1.95;;
81106;SDS011;70588;53.172;8.620;2023-07-16T08:51:21;6.00;;;2.17;;
81106;SDS011;70588;53.172;8.620;2023-07-16T08:53:48;3.92;;;1.80;;
81106;SDS011;70588;53.172;8.620;2023-07-16T08:56:14;3.85;;;2.22;;
81106;SDS011;70588;53.172;8.620;2023-07-16T08:58:40;3.95;;;2.15;;
81106;SDS011;70588;53.172;8.620;2023-07-16T09:01:09;2.10;;;1.90;;
81106;SDS011;70588;53.172;8.620;2023-07-16T09:03:35;4.22;;;2.28;;
81106;SDS011;70588;53.172;8.620;2023-07-16T09:06:01;3.00;;;1.88;;
81106;SDS011;70588;53.172;8.620;2023-07-16T09:08:29;3.22;;;2.08;;
81106;SDS011;70588;53.172;8.620;2023-07-16T09:10:55;4.43;;;1.98;;
81106;SDS011;70588;53.172;8.620;2023-07-16T09:13:21;4.70;;;2.72;;
81106;SDS011;70588;53.172;8.620;2023-07-16T09:15:51;5.15;;;2.38;;
81106;SDS011;70588;53.172;8.620;2023-07-16T09:18:21;4.35;;;2.28;;
81106;SDS011;70588;53.172;8.620;2023-07-16T09:20:47;4.72;;;2.40;;
81106;SDS011;70588;53.172;8.620;2023-07-16T09:23:15;3.22;;;2.00;;
81106;SDS011;70588;53.172;8.620;2023-07-16T09:25:43;4.47;;;2.30;;
81106;SDS011;70588;53.172;8.620;2023-07-16T09:28:08;3.75;;;2.08;;
81106;SDS011;70588;53.172;8.620;2023-07-16T09:30:34;5.45;;;2.25;;
81106;SDS011;70588;53.172;8.620;2023-07-16T09:33:33;5.75;;;2.67;;
81106;SDS011;70588;53.172;8.620;2023-07-16T09:35:51;4.65;;;2.80;;
81106;SDS011;70588;53.172;8.620;2023-07-16T09:38:17;4.20;;;2.28;;
81106;SDS011;70588;53.172;8.620;2023-07-16T09:40:43;4.82;;;2.47;;
81106;SDS011;70588;53.172;8.620;2023-07-16T09:43:09;4.93;;;2.28;;
81106;SDS011;70588;53.172;8.620;2023-07-16T09:45:37;3.60;;;1.77;;
81106;SDS011;70588;53.172;8.620;2023-07-16T09:48:03;2.83;;;2.00;;
81106;SDS011;70588;53.172;8.620;2023-07-16T09:50:30;4.32;;;2.40;;
81106;SDS011;70588;53.172;8.620;2023-07-16T09:53:00;3.80;;;2.28;;
81106;SDS011;70588;53.172;8.620;2023-07-16T09:55:27;3.92;;;2.35;;
81106;SDS011;70588;53.172;8.620;2023-07-16T09:57:59;3.50;;;2.08;;
81106;SDS011;70588;53.172;8.620;2023-07-16T10:00:28;2.55;;;1.73;;
81106;SDS011;70588;53.172;8.620;2023-07-16T10:02:55;3.58;;;2.45;;
81106;SDS011;70588;53.172;8.620;2023-07-16T10:05:24;3.35;;;2.20;;
81106;SDS011;70588;53.172;8.620;2023-07-16T10:07:57;4.55;;;2.47;;
81106;SDS011;70588;53.172;8.620;2023-07-16T10:10:38;3.42;;;2.25;;
81106;SDS011;70588;53.172;8.620;2023-07-16T10:13:06;3.67;;;2.10;;
81106;SDS011;70588;53.172;8.620;2023-07-16T10:15:32;4.60;;;1.95;;
81106;SDS011;70588;53.172;8.620;2023-07-16T10:17:57;4.53;;;2.40;;
81106;SDS011;70588;53.172;8.620;2023-07-16T10:23:14;7.45;;;2.13;;
81106;SDS011;70588;53.172;8.620;2023-07-16T10:25:41;4.18;;;2.00;;
81106;SDS011;70588;53.172;8.620;2023-07-16T10:28:22;4.60;;;2.13;;
81106;SDS011;70588;53.172;8.620;2023-07-16T10:30:49;3.22;;;1.73;;
81106;SDS011;70588;53.172;8.620;2023-07-16T10:33:15;3.95;;;2.20;;
81106;SDS011;70588;53.172;8.620;2023-07-16T10:35:49;4.05;;;2.15;;
81106;SDS011;70588;53.172;8.620;2023-07-16T10:38:15;3.55;;;1.77;;
81106;SDS011;70588;53.172;8.620;2023-07-16T10:40:40;3.90;;;1.98;;
81106;SDS011;70588;53.172;8.620;2023-07-16T10:43:06;2.80;;;1.70;;
81106;SDS011;70588;53.172;8.620;2023-07-16T10:45:32;4.13;;;1.95;;
81106;SDS011;70588;53.172;8.620;2023-07-16T10:47:58;3.13;;;2.00;;
81106;SDS011;70588;53.172;8.620;2023-07-16T10:50:23;3.15;;;2.03;;
81106;SDS011;70588;53.172;8.620;2023-07-16T10:52:52;4.03;;;1.90;;
81106;SDS011;70588;53.172;8.620;2023-07-16T10:55:18;3.03;;;1.90;;
81106;SDS011;70588;53.172;8.620;2023-07-16T10:57:46;5.30;;;2.40;;
81106;SDS011;70588;53.172;8.620;2023-07-16T11:00:12;4.15;;;1.88;;
81106;SDS011;70588;53.172;8.620;2023-07-16T11:02:39;3.22;;;2.17;;
81106;SDS011;70588;53.172;8.620;2023-07-16T11:05:05;4.32;;;2.10;;
81106;SDS011;70588;53.172;8.620;2023-07-16T11:07:34;4.50;;;2.33;;
81106;SDS011;70588;53.172;8.620;2023-07-16T11:09:59;3.00;;;1.73;;
81106;SDS011;70588;53.172;8.620;2023-07-16T11:12:27;5.68;;;2.22;;
81106;SDS011;70588;53.172;8.620;2023-07-16T11:14:54;2.55;;;1.92;;
81106;SDS011;70588;53.172;8.620;2023-07-16T11:17:20;3.90;;;2.28;;
81106;SDS011;70588;53.172;8.620;2023-07-16T11:19:50;2.47;;;1.73;;
81106;SDS011;70588;53.172;8.620;2023-07-16T11:22:17;3.47;;;2.30;;
81106;SDS011;70588;53.172;8.620;2023-07-16T11:24:43;3.53;;;1.90;;
81106;SDS011;70588;53.172;8.620;2023-07-16T11:27:18;4.47;;;1.90;;
81106;SDS011;70588;53.172;8.620;2023-07-16T11:29:53;3.03;;;2.10;;
81106;SDS011;70588;53.172;8.620;2023-07-16T11:32:36;1.88;;;1.67;;
81106;SDS011;70588;53.172;8.620;2023-07-16T11:35:12;2.83;;;1.98;;
81106;SDS011;70588;53.172;8.620;2023-07-16T11:37:41;3.20;;;1.83;;
81106;SDS011;70588;53.172;8.620;2023-07-16T11:40:07;3.65;;;2.22;;
81106;SDS011;70588;53.172;8.620;2023-07-16T11:45:00;4.05;;;2.30;;
81106;SDS011;70588;53.172;8.620;2023-07-16T11:47:27;3.42;;;2.05;;
81106;SDS011;70588;53.172;8.620;2023-07-16T11:49:52;3.50;;;1.83;;
81106;SDS011;70588;53.172;8.620;2023-07-16T11:52:22;1.67;;;1.58;;
81106;SDS011;70588;53.172;8.620;2023-07-16T11:54:52;2.80;;;1.92;;
81106;SDS011;70588;53.172;8.620;2023-07-16T11:57:18;3.38;;;2.25;;
81106;SDS011;70588;53.172;8.620;2023-07-16T11:59:44;2.17;;;1.92;;
81106;SDS011;70588;53.172;8.620;2023-07-16T12:02:10;3.13;;;2.03;;
81106;SDS011;70588;53.172;8.620;2023-07-16T12:04:35;4.10;;;2.28;;
81106;SDS011;70588;53.172;8.620;2023-07-16T12:07:01;4.70;;;2.08;;
81106;SDS011;70588;53.172;8.620;2023-07-16T12:09:26;3.28;;;2.15;;
81106;SDS011;70588;53.172;8.620;2023-07-16T12:11:51;4.90;;;2.72;;
81106;SDS011;70588;53.172;8.620;2023-07-16T12:14:17;4.88;;;2.00;;
81106;SDS011;70588;53.172;8.620;2023-07-16T12:16:42;3.30;;;2.08;;
81106;SDS011;70588;53.172;8.620;2023-07-16T12:19:08;4.32;;;2.50;;
81106;SDS011;70588;53.172;8.620;2023-07-16T12:21:34;4.22;;;2.25;;
81106;SDS011;70588;53.172;8.620;2023-07-16T12:24:00;5.15;;;2.42;;
81106;SDS011;70588;53.172;8.620;2023-07-16T12:26:25;3.92;;;1.85;;
81106;SDS011;70588;53.172;8.620;2023-07-16T12:28:51;2.38;;;1.83;;
81106;SDS011;70588;53.172;8.620;2023-07-16T12:31:16;3.70;;;1.90;;
81106;SDS011;70588;53.172;8.620;2023-07-16T12:33:43;4.45;;;2.00;;
81106;SDS011;70588;53.172;8.620;2023-07-16T12:36:08;3.70;;;2.38;;
81106;SDS011;70588;53.172;8.620;2023-07-16T12:38:34;3.15;;;1.75;;
81106;SDS011;70588;53.172;8.620;2023-07-16T12:40:59;3.45;;;1.90;;
81106;SDS011;70588;53.172;8.620;2023-07-16T12:43:25;3.67;;;2.42;;
81106;SDS011;70588;53.172;8.620;2023-07-16T12:45:50;2.33;;;1.80;;
81106;SDS011;70588;53.172;8.620;2023-07-16T12:48:16;4.57;;;2.10;;
81106;SDS011;70588;53.172;8.620;2023-07-16T12:50:41;3.42;;;2.10;;
81106;SDS011;70588;53.172;8.620;2023-07-16T12:53:07;2.65;;;2.00;;
81106;SDS011;70588;53.172;8.620;2023-07-16T12:55:33;4.40;;;1.90;;
81106;SDS011;70588;53.172;8.620;2023-07-16T12:57:59;2.90;;;1.88;;
81106;SDS011;70588;53.172;8.620;2023-07-16T13:00:24;2.97;;;1.77;;
81106;SDS011;70588;53.172;8.620;2023-07-16T13:02:49;4.03;;;2.33;;
81106;SDS011;70588;53.172;8.620;2023-07-16T13:05:15;2.72;;;2.03;;
81106;SDS011;70588;53.172;8.620;2023-07-16T13:07:40;3.35;;;2.45;;
81106;SDS011;70588;53.172;8.620;2023-07-16T13:10:06;3.95;;;2.17;;
81106;SDS011;70588;53.172;8.620;2023-07-16T13:12:33;2.70;;;2.35;;
81106;SDS011;70588;53.172;8.620;2023-07-16T13:14:58;3.13;;;2.17;;
81106;SDS011;70588;53.172;8.620;2023-07-16T13:17:23;3.80;;;2.13;;
81106;SDS011;70588;53.172;8.620;2023-07-16T13:19:49;4.30;;;2.63;;
81106;SDS011;70588;53.172;8.620;2023-07-16T13:22:14;4.27;;;2.63;;
81106;SDS011;70588;53.172;8.620;2023-07-16T13:24:39;4.20;;;2.30;;
81106;SDS011;70588;53.172;8.620;2023-07-16T13:27:05;4.43;;;3.00;;
81106;SDS011;70588;53.172;8.620;2023-07-16T13:29:31;4.60;;;2.20;;
81106;SDS011;70588;53.172;8.620;2023-07-16T13:31:56;3.67;;;2.30;;
81106;SDS011;70588;53.172;8.620;2023-07-16T13:34:22;4.67;;;2.27;;
81106;SDS011;70588;53.172;8.620;2023-07-16T13:36:47;5.10;;;2.17;;
81106;SDS011;70588;53.172;8.620;2023-07-16T13:39:12;3.90;;;2.42;;
81106;SDS011;70588;53.172;8.620;2023-07-16T13:41:38;3.53;;;2.25;;
81106;SDS011;70588;53.172;8.620;2023-07-16T13:44:04;3.20;;;1.80;;
81106;SDS011;70588;53.172;8.620;2023-07-16T13:46:29;4.00;;;2.47;;
81106;SDS011;70588;53.172;8.620;2023-07-16T13:48:55;2.58;;;1.73;;
81106;SDS011;70588;53.172;8.620;2023-07-16T13:51:20;3.72;;;2.60;;
81106;SDS011;70588;53.172;8.620;2023-07-16T13:53:46;5.05;;;2.90;;
81106;SDS011;70588;53.172;8.620;2023-07-16T13:56:11;2.83;;;2.33;;
81106;SDS011;70588;53.172;8.620;2023-07-16T13:58:36;5.45;;;2.28;;
81106;SDS011;70588;53.172;8.620;2023-07-16T14:01:02;3.80;;;2.07;;
81106;SDS011;70588;53.172;8.620;2023-07-16T14:03:28;5.45;;;2.47;;
81106;SDS011;70588;53.172;8.620;2023-07-16T14:05:53;4.25;;;2.25;;
81106;SDS011;70588;53.172;8.620;2023-07-16T14:08:18;4.65;;;2.13;;
81106;SDS011;70588;53.172;8.620;2023-07-16T14:10:44;7.10;;;2.08;;
81106;SDS011;70588;53.172;8.620;2023-07-16T14:13:09;3.40;;;2.15;;
81106;SDS011;70588;53.172;8.620;2023-07-16T14:15:35;2.80;;;1.83;;
81106;SDS011;70588;53.172;8.620;2023-07-16T14:18:00;2.67;;;2.00;;
81106;SDS011;70588;53.172;8.620;2023-07-16T14:20:26;4.00;;;2.25;;
81106;SDS011;70588;53.172;8.620;2023-07-16T14:22:51;4.10;;;2.42;;
81106;SDS011;70588;53.172;8.620;2023-07-16T14:25:16;2.92;;;2.10;;
81106;SDS011;70588;53.172;8.620;2023-07-16T14:27:43;4.80;;;2.30;;
81106;SDS011;70588;53.172;8.620;2023-07-16T14:30:08;2.50;;;2.13;;
81106;SDS011;70588;53.172;8.620;2023-07-16T14:32:34;4.65;;;2.15;;
81106;SDS011;70588;53.172;8.620;2023-07-16T14:35:00;3.47;;;2.33;;
81106;SDS011;70588;53.172;8.620;2023-07-16T14:37:25;5.25;;;2.55;;
81106;SDS011;70588;53.172;8.620;2023-07-16T14:39:51;2.70;;;1.90;;
81106;SDS011;70588;53.172;8.620;2023-07-16T14:42:16;4.63;;;2.40;;
81106;SDS011;70588;53.172;8.620;2023-07-16T14:44:41;6.77;;;2.40;;
81106;SDS011;70588;53.172;8.620;2023-07-16T14:47:07;2.70;;;2.00;;
81106;SDS011;70588;53.172;8.620;2023-07-16T14:49:32;2.55;;;1.83;;
81106;SDS011;70588;53.172;8.620;2023-07-16T14:51:58;2.70;;;2.00;;